• pl
  • eng

Awiacja
Komunikaty METAR z lotnisk wojskowych. 12:01 30.04.2017

METAR EPBC 301030Z NIL=

METAR EPCE 301030Z 35004KT 320V030 9999 BKN042 07/M02
Q1024 RMK 073 052 7/7 =

METAR EPDA 301030Z 36007KT 320V040 9999 SCT047 08/01
Q1025 RMK 084 062 4/4 =

METAR EPDE 301030Z 30008KT 9999 BKN020 BKN080 09/03 Q1022 RMK 088 069
6/5=

METAR EPIR 301030Z 12006KT 9999 BKN030 08/01 Q1024 RMK 080 062 5/5 =

METAR EPKS 301030Z 09010KT 9999 BKN027 07/01 Q1024 RMK 065 066 7/7=

METAR EPLK 301030Z NIL=

METAR EPLY 301030Z NIL=

METAR EPMB 301030Z AUTO 05008KT 9999 // VV049 09/M01 Q1025 RMK 091
049 ///=

METAR EPMI 301030Z NIL=

METAR EPMM 301030Z 35006KT 9999 BKN017 07/03 Q1023 RMK 074 072 7/7=

METAR EPNA 301030Z NIL=

METAR EPOK 301030Z 07007KT 050V110 9999 FEW040 08/M00
Q1025 RMK 076 057 2/2 =

METAR EPPR 301030Z NIL=

METAR EPPW 301030Z 07008KT 9999 BKN033 07/01 Q1024
RMK 066 067 7/7 =

METAR EPSN 301030Z 11008KT CAVOK 10/M01 Q1024 RMK 102 048 4/4=

METAR EPTM 301030Z NIL=
Awiacja.imgw.pl jest pogodowym serwisem informacyjnym
Instytutu Meteorologii i Gospodarki Wodnej Państwowego Instytutu Badawczego.
Copyright IMGW PIB 2009-2011© Wszelkie prawa zastrzeżone.